Time;durP1;ratioP1;P1;durP2;ratioP2;P2;SDS_P1;SDS_P2;PMS_P1;PMS_P2;Temp;Humidity;BMP_temperature;BMP_pressure;BME280_temperature;BME280_humidity;BME280_pressure;Samples;Min_cycle;Max_cycle;Signal;HPM_P1;HPM_P2
2023/09/30 00:01:41;;;;;;;;;;;;;;;17.23;100.00;99865.66;4916627;29;892;-58
2023/09/30 00:04:08;;;;;;;;;;;;;;;17.26;100.00;99870.34;4916795;29;900;-58
2023/09/30 00:06:36;;;;;;;;;;;;;;;17.26;100.00;99868.34;4916575;29;935;-58
2023/09/30 00:09:05;;;;;;;;;;;;;;;17.35;100.00;99870.47;4916646;29;880;-58
2023/09/30 00:11:31;;;;;;;;;;;;;;;17.40;100.00;99864.31;4916533;29;1023;-58
2023/09/30 00:13:58;;;;;;;;;;;;;;;17.29;100.00;99861.09;4916338;29;1468;-58
2023/09/30 00:16:24;;;;;;;;;;;;;;;17.20;100.00;99861.75;4916564;29;846;-58
2023/09/30 00:18:53;;;;;;;;;;;;;;;17.19;100.00;99862.97;4916327;29;1943;-58
2023/09/30 00:21:20;;;;;;;;;;;;;;;17.15;100.00;99856.72;4916360;29;936;-58
2023/09/30 00:23:46;;;;;;;;;;;;;;;17.07;100.00;99856.16;4916288;29;857;-58
2023/09/30 00:26:13;;;;;;;;;;;;;;;17.06;100.00;99860.16;4916255;29;837;-58
2023/09/30 00:28:40;;;;;;;;;;;;;;;17.06;100.00;99851.78;4916256;29;960;-58
2023/09/30 00:31:10;;;;;;;;;;;;;;;17.09;100.00;99853.72;4916225;29;948;-58
2023/09/30 00:33:37;;;;;;;;;;;;;;;17.08;100.00;99848.56;4916170;29;875;-58
2023/09/30 00:36:10;;;;;;;;;;;;;;;17.05;100.00;99858.63;4916169;29;916;-58
2023/09/30 00:38:40;;;;;;;;;;;;;;;17.06;100.00;99851.03;4915565;29;1886;-58
2023/09/30 00:41:08;;;;;;;;;;;;;;;17.11;100.00;99848.47;4915944;29;912;-58
2023/09/30 00:43:34;;;;;;;;;;;;;;;17.23;100.00;99852.47;4916060;29;809;-58
2023/09/30 00:46:18;;;;;;;;;;;;;;;17.27;100.00;99841.19;4915993;29;1063;-58
2023/09/30 00:48:45;;;;;;;;;;;;;;;17.34;100.00;99844.53;4915998;29;832;-58
2023/09/30 00:51:11;;;;;;;;;;;;;;;17.24;100.00;99842.06;4915857;29;861;-58
2023/09/30 00:53:38;;;;;;;;;;;;;;;17.15;100.00;99842.75;4915979;29;948;-58
2023/09/30 00:56:05;;;;;;;;;;;;;;;17.09;100.00;99838.94;4934727;29;885;-58
2023/09/30 00:58:34;;;;;;;;;;;;;;;17.14;100.00;99844.78;4934732;29;1951;-58
2023/09/30 01:01:00;;;;;;;;;;;;;;;17.14;100.00;99844.78;4934752;29;828;-58
2023/09/30 01:03:27;;;;;;;;;;;;;;;17.22;100.00;99838.94;4935077;29;833;-58
2023/09/30 01:05:54;;;;;;;;;;;;;;;17.22;100.00;99848.13;4934789;29;817;-58
2023/09/30 01:08:20;;;;;;;;;;;;;;;17.24;100.00;99847.66;4933489;29;1395;-58
2023/09/30 01:10:48;;;;;;;;;;;;;;;17.16;100.00;99840.75;4934677;29;868;-58
2023/09/30 01:13:14;;;;;;;;;;;;;;;17.04;100.00;99842.31;4931176;29;1279;-58
2023/09/30 01:15:41;;;;;;;;;;;;;;;16.83;100.00;99843.72;4915644;29;809;-58
2023/09/30 01:18:08;;;;;;;;;;;;;;;16.68;100.00;99843.34;4915588;29;865;-58
2023/09/30 01:20:35;;;;;;;;;;;;;;;16.72;100.00;99846.81;4915435;29;1914;-58
2023/09/30 01:23:02;;;;;;;;;;;;;;;17.04;100.00;99845.88;4915660;29;909;-58
2023/09/30 01:25:29;;;;;;;;;;;;;;;17.02;100.00;99842.75;4933019;29;905;-58
2023/09/30 01:27:58;;;;;;;;;;;;;;;16.82;100.00;99842.97;4934555;29;896;-58
2023/09/30 01:30:25;;;;;;;;;;;;;;;16.62;100.00;99847.91;4934461;29;955;-58
2023/09/30 01:32:51;;;;;;;;;;;;;;;16.52;100.00;99850.56;4934762;29;889;-58
2023/09/30 01:35:18;;;;;;;;;;;;;;;16.50;100.00;99841.84;4934474;29;825;-58
2023/09/30 01:37:45;;;;;;;;;;;;;;;16.62;100.00;99839.53;4934473;29;821;-58
2023/09/30 01:40:11;;;;;;;;;;;;;;;16.71;100.00;99831.31;4934293;29;1944;-59
2023/09/30 01:42:39;;;;;;;;;;;;;;;16.81;100.00;99833.00;4934433;29;909;-58
2023/09/30 01:45:05;;;;;;;;;;;;;;;16.85;100.00;99835.69;4933235;29;1793;-59
2023/09/30 01:47:32;;;;;;;;;;;;;;;16.98;100.00;99830.91;4934275;29;884;-58
2023/09/30 01:49:59;;;;;;;;;;;;;;;17.02;100.00;99837.16;4934409;29;829;-59
2023/09/30 01:52:25;;;;;;;;;;;;;;;16.93;100.00;99828.69;4937974;29;1197;-58
2023/09/30 01:54:52;;;;;;;;;;;;;;;16.82;100.00;99831.03;4937990;29;1135;-58
2023/09/30 01:57:18;;;;;;;;;;;;;;;16.83;100.00;99830.56;4938030;29;880;-58
2023/09/30 01:59:45;;;;;;;;;;;;;;;16.80;100.00;99828.66;4937921;29;1894;-58
2023/09/30 02:02:12;;;;;;;;;;;;;;;16.78;100.00;99817.13;4937885;29;865;-58
2023/09/30 02:04:38;;;;;;;;;;;;;;;16.71;100.00;99832.09;4937868;29;840;-58
2023/09/30 02:07:05;;;;;;;;;;;;;;;16.73;100.00;99823.28;4937828;29;889;-58
2023/09/30 02:09:31;;;;;;;;;;;;;;;16.74;100.00;99817.22;4937796;29;821;-59
2023/09/30 02:11:58;;;;;;;;;;;;;;;16.66;100.00;99826.25;4937947;29;1004;-59
2023/09/30 02:14:25;;;;;;;;;;;;;;;16.69;100.00;99819.81;4924812;29;1362;-59
2023/09/30 02:16:51;;;;;;;;;;;;;;;16.59;100.00;99818.88;4918644;29;905;-58
2023/09/30 02:19:19;;;;;;;;;;;;;;;16.41;100.00;99813.84;4918517;29;1906;-58
2023/09/30 02:21:46;;;;;;;;;;;;;;;16.45;100.00;99820.09;4933470;29;852;-58
2023/09/30 02:24:13;;;;;;;;;;;;;;;16.53;100.00;99815.06;4918396;29;979;-58
2023/09/30 02:26:40;;;;;;;;;;;;;;;16.48;100.00;99824.00;4933159;29;1096;-58
2023/09/30 02:29:07;;;;;;;;;;;;;;;16.31;100.00;99817.69;4918395;29;870;-58
2023/09/30 02:31:34;;;;;;;;;;;;;;;16.13;100.00;99827.34;4937644;29;952;-58
2023/09/30 02:34:02;;;;;;;;;;;;;;;15.97;100.00;99816.22;4937386;29;981;-58
2023/09/30 02:36:29;;;;;;;;;;;;;;;15.90;100.00;99819.22;4937197;29;976;-58
2023/09/30 02:38:55;;;;;;;;;;;;;;;15.73;100.00;99817.69;4937291;29;1887;-58
2023/09/30 02:41:22;;;;;;;;;;;;;;;15.58;100.00;99820.03;4937199;29;881;-58
2023/09/30 02:43:49;;;;;;;;;;;;;;;15.64;100.00;99807.09;4937216;29;845;-58
2023/09/30 02:46:16;;;;;;;;;;;;;;;15.62;100.00;99821.50;4937125;29;849;-58
2023/09/30 02:48:43;;;;;;;;;;;;;;;15.52;100.00;99812.16;4937464;29;853;-58
2023/09/30 02:51:11;;;;;;;;;;;;;;;15.75;100.00;99809.66;4937076;29;833;-58
2023/09/30 02:53:38;;;;;;;;;;;;;;;15.75;100.00;99815.25;4937173;29;940;-58
2023/09/30 02:56:05;;;;;;;;;;;;;;;15.43;100.00;99825.16;4936984;29;838;-58
2023/09/30 02:58:31;;;;;;;;;;;;;;;15.24;100.00;99815.66;4936916;29;932;-58
2023/09/30 03:00:59;;;;;;;;;;;;;;;15.23;100.00;99823.22;4937102;29;1974;-58
2023/09/30 03:03:25;;;;;;;;;;;;;;;15.06;100.00;99818.84;4936293;29;924;-58
2023/09/30 03:05:54;;;;;;;;;;;;;;;14.93;100.00;99823.53;4936765;29;857;-58
2023/09/30 03:08:22;;;;;;;;;;;;;;;14.73;100.00;99831.94;4935488;29;1059;-58
2023/09/30 03:10:48;;;;;;;;;;;;;;;14.57;100.00;99818.72;4936711;29;1142;-58
2023/09/30 03:13:15;;;;;;;;;;;;;;;14.44;100.00;99824.13;4933412;29;1448;-59
2023/09/30 03:15:42;;;;;;;;;;;;;;;14.37;100.00;99822.28;4917503;29;881;-58
2023/09/30 03:18:08;;;;;;;;;;;;;;;14.50;100.00;99825.19;4917569;29;946;-58
2023/09/30 03:20:36;;;;;;;;;;;;;;;14.62;100.00;99819.03;4932262;29;1980;-58
2023/09/30 03:23:04;;;;;;;;;;;;;;;14.83;100.00;99819.75;4917464;29;1325;-58
2023/09/30 03:25:31;;;;;;;;;;;;;;;15.14;100.00;99817.47;4932001;29;864;-58
2023/09/30 03:27:58;;;;;;;;;;;;;;;15.58;100.00;99820.78;4917443;29;888;-59
2023/09/30 03:30:24;;;;;;;;;;;;;;;15.62;100.00;99824.28;4917283;29;948;-58
2023/09/30 03:32:51;;;;;;;;;;;;;;;15.39;100.00;99818.91;4917245;29;890;-58
2023/09/30 03:35:17;;;;;;;;;;;;;;;15.21;100.00;99822.91;4917221;29;916;-58
2023/09/30 03:37:44;;;;;;;;;;;;;;;15.02;100.00;99824.53;4917238;29;837;-58
2023/09/30 03:40:13;;;;;;;;;;;;;;;14.97;100.00;99818.66;4917104;29;1954;-58
2023/09/30 03:42:42;;;;;;;;;;;;;;;14.78;100.00;99820.28;4917038;29;865;-58
2023/09/30 03:45:09;;;;;;;;;;;;;;;15.03;100.00;99817.72;4917455;29;895;-58
2023/09/30 03:47:37;;;;;;;;;;;;;;;15.22;100.00;99824.44;4917059;29;853;-58
2023/09/30 03:50:04;;;;;;;;;;;;;;;15.06;100.00;99824.41;4917179;29;872;-58
2023/09/30 03:52:33;;;;;;;;;;;;;;;14.94;100.00;99820.31;4916835;29;850;-58
2023/09/30 03:55:01;;;;;;;;;;;;;;;14.92;100.00;99824.75;4916888;29;842;-58
2023/09/30 03:57:27;;;;;;;;;;;;;;;14.91;100.00;99823.94;4916763;29;900;-58
2023/09/30 03:59:54;;;;;;;;;;;;;;;14.99;100.00;99821.81;4916748;29;1918;-58
2023/09/30 04:02:21;;;;;;;;;;;;;;;15.03;100.00;99816.94;4916777;29;885;-58
2023/09/30 04:04:50;;;;;;;;;;;;;;;15.09;100.00;99818.00;4916667;29;806;-59
2023/09/30 04:07:17;;;;;;;;;;;;;;;15.20;100.00;99826.09;4916656;29;916;-58
2023/09/30 04:09:44;;;;;;;;;;;;;;;15.24;100.00;99819.22;4916661;29;876;-59
2023/09/30 04:12:11;;;;;;;;;;;;;;;15.24;100.00;99822.00;4916797;29;1031;-58
2023/09/30 04:14:37;;;;;;;;;;;;;;;15.31;100.00;99821.81;4916304;29;1295;-58
2023/09/30 04:17:04;;;;;;;;;;;;;;;15.37;100.00;99815.75;4916505;29;920;-58
2023/09/30 04:19:32;;;;;;;;;;;;;;;15.36;100.00;99823.31;4916443;29;1974;-58
2023/09/30 04:22:00;;;;;;;;;;;;;;;15.20;100.00;99824.09;4916316;29;976;-58
2023/09/30 04:24:28;;;;;;;;;;;;;;;15.08;100.00;99821.97;4916704;29;1034;-58
2023/09/30 04:27:01;;;;;;;;;;;;;;;14.99;100.00;99821.81;4916336;29;1182;-58
2023/09/30 04:29:29;;;;;;;;;;;;;;;15.07;100.00;99818.44;4899256;29;865;-58
2023/09/30 04:31:56;;;;;;;;;;;;;;;15.12;100.00;99819.91;4916233;29;1081;-58
2023/09/30 04:34:23;;;;;;;;;;;;;;;15.26;100.00;99825.16;4916027;29;952;-58
2023/09/30 04:36:48;;;;;;;;;;;;;;;15.35;100.00;99823.75;4916194;29;909;-58
2023/09/30 04:39:15;;;;;;;;;;;;;;;15.54;100.00;99830.47;4916055;29;1894;-58
2023/09/30 04:41:42;;;;;;;;;;;;;;;15.77;100.00;99827.50;4916129;29;933;-59
2023/09/30 04:44:11;;;;;;;;;;;;;;;16.02;100.00;99826.84;4916323;29;849;-58
2023/09/30 04:46:45;;;;;;;;;;;;;;;16.30;100.00;99824.50;4916028;29;1072;-58
2023/09/30 04:49:11;;;;;;;;;;;;;;;16.56;100.00;99821.78;4915916;29;971;-58
2023/09/30 04:51:39;;;;;;;;;;;;;;;17.05;100.00;99825.13;4915862;29;865;-58
2023/09/30 04:54:10;;;;;;;;;;;;;;;17.39;100.00;99823.66;4915900;29;964;-58
2023/09/30 04:56:38;;;;;;;;;;;;;;;17.80;100.00;99827.47;4915773;29;893;-58
2023/09/30 04:59:05;;;;;;;;;;;;;;;18.05;97.99;99823.84;4915750;29;1891;-58
2023/09/30 05:01:32;;;;;;;;;;;;;;;18.33;95.81;99835.25;4915777;29;900;-58
2023/09/30 05:03:59;;;;;;;;;;;;;;;18.51;94.39;99832.56;4916157;29;912;-58
2023/09/30 05:06:26;;;;;;;;;;;;;;;18.59;85.36;99833.09;4915645;29;999;-58
2023/09/30 05:08:52;;;;;;;;;;;;;;;18.76;85.08;99836.47;4915632;29;970;-58
2023/09/30 05:11:19;;;;;;;;;;;;;;;18.91;83.52;99840.28;4915548;29;960;-58
2023/09/30 05:13:45;;;;;;;;;;;;;;;19.03;83.55;99849.06;4915425;29;1394;-58
2023/09/30 05:16:13;;;;;;;;;;;;;;;19.09;77.64;99841.63;4915570;29;928;-58
2023/09/30 05:18:39;;;;;;;;;;;;;;;19.16;76.71;99844.94;4915395;29;1972;-57
2023/09/30 05:21:06;;;;;;;;;;;;;;;19.27;76.60;99844.50;4915493;29;924;-58
2023/09/30 05:23:34;;;;;;;;;;;;;;;19.36;75.13;99846.56;4915600;29;880;-57
2023/09/30 05:26:01;;;;;;;;;;;;;;;19.51;74.24;99841.16;4918846;29;980;-57
2023/09/30 05:28:28;;;;;;;;;;;;;;;19.63;73.61;99845.84;4921805;29;936;-57
2023/09/30 05:30:54;;;;;;;;;;;;;;;19.65;73.59;99851.78;4921818;29;902;-57
2023/09/30 05:33:22;;;;;;;;;;;;;;;19.77;73.23;99850.88;4921687;29;952;-57
2023/09/30 05:35:49;;;;;;;;;;;;;;;19.88;72.89;99853.22;4936481;29;1256;-56
2023/09/30 05:38:15;;;;;;;;;;;;;;;20.09;71.73;99857.16;4921729;29;928;-57
2023/09/30 05:40:42;;;;;;;;;;;;;;;20.37;70.58;99855.09;4921603;29;1882;-58
2023/09/30 05:43:13;;;;;;;;;;;;;;;20.59;69.49;99849.34;4936344;29;668;-58
2023/09/30 05:45:48;;;;;;;;;;;;;;;20.49;69.47;99844.97;4922258;29;888;-57
2023/09/30 05:48:15;;;;;;;;;;;;;;;20.49;69.31;99849.81;4921997;29;841;-56
2023/09/30 05:50:43;;;;;;;;;;;;;;;20.60;69.62;99850.13;4921682;29;881;-57
2023/09/30 05:53:10;;;;;;;;;;;;;;;20.47;69.71;99857.94;4921847;29;928;-57
2023/09/30 05:55:38;;;;;;;;;;;;;;;20.37;69.59;99854.34;4940507;29;881;-58
2023/09/30 05:58:05;;;;;;;;;;;;;;;20.56;69.42;99850.25;4940630;29;911;-57
2023/09/30 06:00:35;;;;;;;;;;;;;;;20.70;69.55;99853.72;4940455;29;1940;-57
2023/09/30 06:03:04;;;;;;;;;;;;;;;20.68;69.52;99853.41;4940555;29;919;-57
2023/09/30 06:05:31;;;;;;;;;;;;;;;20.52;70.22;99857.28;4940493;29;1134;-57
2023/09/30 06:08:00;;;;;;;;;;;;;;;20.44;70.33;99856.84;4940374;29;874;-57
2023/09/30 06:10:26;;;;;;;;;;;;;;;20.51;70.50;99864.94;4940456;29;882;-57
2023/09/30 06:12:57;;;;;;;;;;;;;;;20.57;69.82;99857.47;4940905;29;940;-57
2023/09/30 06:15:28;;;;;;;;;;;;;;;20.41;70.65;99857.75;4902500;29;912;-57
2023/09/30 06:17:55;;;;;;;;;;;;;;;20.30;71.26;99855.44;4901243;29;1430;-58
2023/09/30 06:20:25;;;;;;;;;;;;;;;20.23;71.36;99877.41;4902360;29;1903;-56
2023/09/30 06:22:55;;;;;;;;;;;;;;;20.42;71.12;99859.34;4902434;29;974;-57
2023/09/30 06:25:23;;;;;;;;;;;;;;;20.47;71.27;99869.94;4901169;29;1308;-57
2023/09/30 06:27:50;;;;;;;;;;;;;;;20.38;71.53;99859.50;4902387;29;984;-58
2023/09/30 06:30:17;;;;;;;;;;;;;;;20.51;71.39;99866.97;4902522;29;857;-58
2023/09/30 06:32:45;;;;;;;;;;;;;;;20.54;70.92;99872.41;4902415;29;896;-58
2023/09/30 06:35:12;;;;;;;;;;;;;;;20.33;71.19;99870.56;4902630;29;853;-56
2023/09/30 06:37:39;;;;;;;;;;;;;;;20.35;71.74;99865.25;4899252;29;873;-58
2023/09/30 06:40:07;;;;;;;;;;;;;;;20.24;72.39;99862.16;4899379;29;1961;-57
2023/09/30 07:13:36;;;;;;;;;;;;;;;21.25;72.56;99880.84;5257082;23;1630;-57
2023/09/30 07:16:03;;;;;;;;;;;;;;;21.23;73.11;99870.09;4975244;28;906;-57
2023/09/30 07:18:29;;;;;;;;;;;;;;;21.20;73.30;99880.22;4975369;28;880;-57
2023/09/30 07:20:56;;;;;;;;;;;;;;;21.23;73.90;99872.91;4975193;28;1903;-59
2023/09/30 07:23:23;;;;;;;;;;;;;;;21.20;75.16;99868.22;4973790;28;1323;-58
2023/09/30 07:25:51;;;;;;;;;;;;;;;21.19;75.14;99872.28;4974932;28;836;-57
2023/09/30 07:28:18;;;;;;;;;;;;;;;21.30;74.94;99881.00;4973594;28;1444;-57
2023/09/30 07:30:44;;;;;;;;;;;;;;;21.31;73.81;99876.91;4974852;28;841;-58
2023/09/30 07:33:11;;;;;;;;;;;;;;;21.61;73.21;99874.28;4974865;28;879;-57
2023/09/30 07:35:38;;;;;;;;;;;;;;;22.00;72.24;99877.19;4974774;28;884;-57
2023/09/30 07:38:05;;;;;;;;;;;;;;;21.93;73.19;99866.28;4974715;28;828;-58
2023/09/30 07:40:32;;;;;;;;;;;;;;;21.91;73.21;99866.78;4974621;28;1883;-57
2023/09/30 07:42:59;;;;;;;;;;;;;;;21.91;73.98;99871.63;4974472;28;881;-57
2023/09/30 07:45:26;;;;;;;;;;;;;;;22.13;73.88;99882.59;4974855;28;875;-57
2023/09/30 07:47:51;;;;;;;;;;;;;;;22.84;71.78;99880.88;4974208;28;829;-57
2023/09/30 07:50:28;;;;;;;;;;;;;;;23.28;69.73;99885.72;4974361;28;881;-56
2023/09/30 07:52:56;;;;;;;;;;;;;;;24.12;67.17;99886.13;4974395;28;801;-56
2023/09/30 07:55:22;;;;;;;;;;;;;;;24.59;66.69;99878.47;4974550;28;876;-56
2023/09/30 07:57:49;;;;;;;;;;;;;;;24.50;62.03;99887.13;4974278;28;837;-57
2023/09/30 08:00:16;;;;;;;;;;;;;;;23.65;63.18;99891.66;4974306;28;1882;-57
2023/09/30 08:02:44;;;;;;;;;;;;;;;23.30;64.16;99888.84;4974228;28;919;-55
2023/09/30 08:05:11;;;;;;;;;;;;;;;23.20;62.82;99893.03;4974185;28;1013;-57
2023/09/30 08:07:42;;;;;;;;;;;;;;;23.88;62.31;99889.19;4974230;28;873;-56
2023/09/30 08:10:13;;;;;;;;;;;;;;;24.91;59.58;99891.88;4974096;28;829;-56
2023/09/30 08:12:39;;;;;;;;;;;;;;;25.50;56.74;99897.00;4974266;28;1232;-57
2023/09/30 08:15:06;;;;;;;;;;;;;;;25.87;54.95;99901.84;4974360;28;1238;-56
2023/09/30 08:17:33;;;;;;;;;;;;;;;25.83;51.97;99884.34;4974527;28;1294;-55
2023/09/30 08:20:01;;;;;;;;;;;;;;;25.85;48.69;99896.69;4973910;28;1964;-57
2023/09/30 08:22:28;;;;;;;;;;;;;;;25.42;49.72;99904.41;4972761;28;1360;-56
2023/09/30 08:24:55;;;;;;;;;;;;;;;25.54;48.41;99906.03;4974011;28;865;-56
2023/09/30 08:27:21;;;;;;;;;;;;;;;25.90;47.00;99894.44;4973923;28;912;-57
2023/09/30 08:29:47;;;;;;;;;;;;;;;26.31;46.31;99894.06;4974041;28;1014;-56
2023/09/30 08:32:14;;;;;;;;;;;;;;;26.64;43.96;99899.09;4973883;28;836;-57
2023/09/30 08:34:41;;;;;;;;;;;;;;;26.35;43.75;99897.44;4973702;28;833;-56
2023/09/30 08:37:07;;;;;;;;;;;;;;;25.68;45.32;99893.00;4973841;28;856;-57
2023/09/30 08:39:32;;;;;;;;;;;;;;;26.00;43.78;99896.53;4973306;28;1949;-57
2023/09/30 08:42:01;;;;;;;;;;;;;;;26.24;42.48;99896.16;4973490;28;849;-56
2023/09/30 08:44:29;;;;;;;;;;;;;;;25.54;42.70;99883.41;4973564;28;888;-57
2023/09/30 08:46:56;;;;;;;;;;;;;;;25.04;43.95;99889.44;4973534;28;1200;-58
2023/09/30 08:49:23;;;;;;;;;;;;;;;24.88;44.77;99882.38;4973570;28;1191;-57
2023/09/30 08:51:50;;;;;;;;;;;;;;;24.88;44.03;99879.53;4974069;28;864;-57
2023/09/30 08:54:17;;;;;;;;;;;;;;;24.73;44.20;99890.16;4973513;28;1205;-57
2023/09/30 08:56:52;;;;;;;;;;;;;;;24.48;44.20;99886.03;4973392;28;841;-58
2023/09/30 08:59:19;;;;;;;;;;;;;;;24.40;44.33;99880.81;4973307;28;1970;-58
2023/09/30 09:01:45;;;;;;;;;;;;;;;24.68;43.63;99880.34;4971475;28;1382;-58
2023/09/30 09:04:12;;;;;;;;;;;;;;;24.86;43.71;99879.25;4973215;28;835;-58
2023/09/30 09:06:39;;;;;;;;;;;;;;;25.05;42.66;99888.16;4973498;28;886;-57
2023/09/30 09:09:16;;;;;;;;;;;;;;;25.29;42.61;99872.94;4973608;28;911;-57
2023/09/30 09:11:46;;;;;;;;;;;;;;;25.34;42.46;99875.81;4973185;28;903;-58
2023/09/30 09:14:13;;;;;;;;;;;;;;;25.24;41.49;99871.59;4972382;28;1458;-59
2023/09/30 09:16:55;;;;;;;;;;;;;;;25.01;41.06;99871.41;4973177;28;864;-61
2023/09/30 09:19:22;;;;;;;;;;;;;;;24.78;40.66;99890.22;4972885;28;1910;-58
2023/09/30 09:21:58;;;;;;;;;;;;;;;24.75;40.16;99881.97;4973081;28;903;-58
2023/09/30 09:24:28;;;;;;;;;;;;;;;24.56;39.70;99882.31;4973226;28;868;-58
2023/09/30 09:27:07;;;;;;;;;;;;;;;24.45;39.82;99882.13;4971596;28;1115;-58
2023/09/30 09:29:34;;;;;;;;;;;;;;;24.51;40.03;99873.75;4973023;28;877;-58
2023/09/30 09:32:27;;;;;;;;;;;;;;;24.82;39.86;99871.00;4972943;28;833;-57
2023/09/30 09:35:00;;;;;;;;;;;;;;;24.90;39.03;99873.34;4970620;28;1694;-57
2023/09/30 09:37:27;;;;;;;;;;;;;;;25.06;38.72;99882.00;4972977;28;817;-57
2023/09/30 09:39:57;;;;;;;;;;;;;;;24.93;37.60;99875.97;4972744;28;1918;-58
2023/09/30 09:42:28;;;;;;;;;;;;;;;24.90;38.07;99860.03;4972890;28;953;-58
2023/09/30 09:44:59;;;;;;;;;;;;;;;24.91;37.68;99858.72;4972803;28;943;-59
2023/09/30 09:47:26;;;;;;;;;;;;;;;24.98;37.41;99863.91;4972804;28;996;-58
2023/09/30 09:49:54;;;;;;;;;;;;;;;25.10;38.02;99867.63;4972796;28;915;-58
2023/09/30 09:52:21;;;;;;;;;;;;;;;25.05;36.94;99852.19;4971521;28;1307;-58
2023/09/30 09:54:48;;;;;;;;;;;;;;;25.01;36.88;99854.47;4972742;28;935;-57
2023/09/30 09:57:22;;;;;;;;;;;;;;;25.02;37.21;99850.34;4972941;28;817;-59
2023/09/30 09:59:49;;;;;;;;;;;;;;;24.99;36.96;99854.19;4972738;28;1959;-58
2023/09/30 10:02:17;;;;;;;;;;;;;;;24.96;36.94;99860.81;4972717;28;883;-58
2023/09/30 10:04:45;;;;;;;;;;;;;;;24.97;36.92;99859.56;4972656;28;908;-58
2023/09/30 10:07:32;;;;;;;;;;;;;;;25.06;36.96;99855.78;4972591;28;817;-58
2023/09/30 10:10:00;;;;;;;;;;;;;;;25.08;36.52;99847.56;4972486;28;1210;-58
2023/09/30 10:12:27;;;;;;;;;;;;;;;24.97;36.04;99855.97;4975139;28;1040;-58
2023/09/30 10:14:53;;;;;;;;;;;;;;;24.85;36.65;99849.44;4976044;28;1444;-58
2023/09/30 10:17:21;;;;;;;;;;;;;;;24.81;36.49;99846.06;4976295;28;856;-58
2023/09/30 10:20:09;;;;;;;;;;;;;;;24.79;36.47;99849.41;4974858;28;1922;-58
2023/09/30 10:22:36;;;;;;;;;;;;;;;24.82;36.64;99837.06;4976113;28;962;-58
2023/09/30 10:25:21;;;;;;;;;;;;;;;24.85;36.68;99827.59;4976042;28;859;-57
2023/09/30 10:27:48;;;;;;;;;;;;;;;24.98;36.90;99829.22;4974752;28;1289;-58
2023/09/30 10:30:16;;;;;;;;;;;;;;;25.11;36.56;99826.75;4976019;28;856;-58
2023/09/30 10:32:54;;;;;;;;;;;;;;;25.31;36.61;99833.63;4975990;28;956;-58
2023/09/30 10:35:41;;;;;;;;;;;;;;;25.41;36.49;99830.09;4975935;28;852;-58
2023/09/30 10:38:26;;;;;;;;;;;;;;;25.44;36.12;99831.91;4958495;28;1328;-58
2023/09/30 10:40:53;;;;;;;;;;;;;;;25.57;35.91;99839.19;4975712;28;2288;-58
2023/09/30 10:43:32;;;;;;;;;;;;;;;25.54;35.55;99834.50;4975909;28;876;-58
2023/09/30 10:45:59;;;;;;;;;;;;;;;25.53;35.70;99838.63;4975820;28;904;-57
2023/09/30 10:48:31;;;;;;;;;;;;;;;25.48;35.48;99826.00;4975634;28;912;-57
2023/09/30 10:51:00;;;;;;;;;;;;;;;25.54;35.71;99821.16;4975864;28;876;-58
2023/09/30 10:53:28;;;;;;;;;;;;;;;25.58;35.96;99823.72;4975603;28;829;-58
2023/09/30 10:55:56;;;;;;;;;;;;;;;25.71;35.99;99832.56;4958216;28;2326;-58
2023/09/30 10:58:43;;;;;;;;;;;;;;;25.56;35.43;99823.47;4975336;28;931;-58
2023/09/30 11:01:11;;;;;;;;;;;;;;;25.61;35.36;99817.84;4965057;28;1891;-57
2023/09/30 11:03:39;;;;;;;;;;;;;;;25.69;35.32;99809.66;4975358;28;859;-57
2023/09/30 11:06:05;;;;;;;;;;;;;;;25.79;35.26;99802.47;4975364;28;867;-57
2023/09/30 11:08:32;;;;;;;;;;;;;;;25.93;34.93;99811.31;4975304;28;816;-58
2023/09/30 11:11:00;;;;;;;;;;;;;;;26.04;34.90;99805.69;4975293;28;852;-57
2023/09/30 11:13:36;;;;;;;;;;;;;;;26.19;34.65;99806.25;4975054;28;1306;-58
2023/09/30 11:16:04;;;;;;;;;;;;;;;26.30;34.02;99816.06;4975563;28;872;-57
2023/09/30 11:18:32;;;;;;;;;;;;;;;26.40;34.04;99814.53;4975328;28;793;-58
2023/09/30 11:21:04;;;;;;;;;;;;;;;26.45;34.37;99814.53;4974906;28;1974;-57
2023/09/30 11:23:31;;;;;;;;;;;;;;;27.32;33.73;99808.38;4974461;28;839;-58
2023/09/30 11:25:58;;;;;;;;;;;;;;;28.65;32.15;99811.13;4974943;28;915;-58
2023/09/30 11:28:27;;;;;;;;;;;;;;;28.78;30.76;99801.19;4974992;28;797;-58
2023/09/30 11:30:58;;;;;;;;;;;;;;;28.79;30.91;99797.84;4974854;28;849;-58
2023/09/30 11:33:25;;;;;;;;;;;;;;;28.87;30.20;99800.88;4975082;28;825;-58
2023/09/30 11:36:02;;;;;;;;;;;;;;;29.10;29.79;99802.25;4974818;28;884;-58
2023/09/30 11:38:28;;;;;;;;;;;;;;;28.79;29.33;99788.53;4974654;28;833;-57
2023/09/30 11:41:02;;;;;;;;;;;;;;;29.09;29.77;99800.69;4974706;28;1894;-58
2023/09/30 11:43:29;;;;;;;;;;;;;;;29.10;29.61;99790.06;4974850;28;880;-58
2023/09/30 11:46:11;;;;;;;;;;;;;;;29.71;28.78;99782.94;4974716;28;872;-58
2023/09/30 11:48:39;;;;;;;;;;;;;;;29.96;28.08;99784.94;4974518;28;884;-58
2023/09/30 11:51:06;;;;;;;;;;;;;;;29.77;27.46;99787.81;4974564;28;832;-58
2023/09/30 11:53:35;;;;;;;;;;;;;;;29.27;28.62;99784.22;4974451;28;945;-57
2023/09/30 11:56:04;;;;;;;;;;;;;;;29.46;27.96;99785.03;4974416;28;895;-57
2023/09/30 11:58:33;;;;;;;;;;;;;;;29.73;28.04;99770.25;4974350;28;857;-58
2023/09/30 12:01:00;;;;;;;;;;;;;;;30.06;27.71;99781.19;4974263;28;1898;-58
2023/09/30 12:03:30;;;;;;;;;;;;;;;30.44;27.65;99772.63;4974587;28;879;-58
2023/09/30 12:06:00;;;;;;;;;;;;;;;30.08;27.01;99760.69;4974105;28;829;-59
2023/09/30 12:08:27;;;;;;;;;;;;;;;29.07;28.24;99765.50;4974152;28;904;-58
2023/09/30 12:10:55;;;;;;;;;;;;;;;29.16;28.27;99767.25;4974170;28;878;-58
2023/09/30 12:13:21;;;;;;;;;;;;;;;29.79;28.08;99753.88;4974336;28;1212;-58
2023/09/30 12:15:48;;;;;;;;;;;;;;;29.93;27.59;99753.38;4974249;28;860;-58
2023/09/30 12:18:17;;;;;;;;;;;;;;;29.40;27.35;99746.53;4973965;28;854;-60
2023/09/30 12:20:44;;;;;;;;;;;;;;;29.02;27.90;99746.41;4973864;28;1923;-60
2023/09/30 12:23:10;;;;;;;;;;;;;;;28.26;29.36;99741.09;4973906;28;900;-58
2023/09/30 12:25:37;;;;;;;;;;;;;;;27.89;29.43;99736.69;4973800;28;829;-58
2023/09/30 12:28:05;;;;;;;;;;;;;;;27.39;30.00;99751.84;4973827;28;928;-57
2023/09/30 12:30:32;;;;;;;;;;;;;;;27.00;30.62;99743.44;4973682;28;829;-58
2023/09/30 12:32:59;;;;;;;;;;;;;;;27.01;31.26;99734.41;4973858;28;829;-57
2023/09/30 12:35:26;;;;;;;;;;;;;;;27.32;31.08;99723.25;4972843;28;824;-58
2023/09/30 12:37:53;;;;;;;;;;;;;;;27.85;30.04;99721.22;4973749;28;817;-58
2023/09/30 12:40:20;;;;;;;;;;;;;;;28.18;29.64;99702.41;4973420;28;1953;-57
2023/09/30 12:42:47;;;;;;;;;;;;;;;28.54;29.00;99716.63;4973646;28;884;-59
2023/09/30 12:45:14;;;;;;;;;;;;;;;28.18;29.39;99711.72;4973384;28;884;-58
2023/09/30 12:47:40;;;;;;;;;;;;;;;28.56;29.25;99703.41;4973621;28;901;-58
2023/09/30 12:50:08;;;;;;;;;;;;;;;28.88;28.75;99706.47;4973518;28;907;-58
2023/09/30 12:52:35;;;;;;;;;;;;;;;28.38;29.02;99707.69;4973410;28;962;-59
2023/09/30 12:55:02;;;;;;;;;;;;;;;28.37;29.00;99713.91;4973456;28;812;-58
2023/09/30 12:57:29;;;;;;;;;;;;;;;28.19;29.55;99701.13;4973321;28;892;-58
2023/09/30 12:59:56;;;;;;;;;;;;;;;28.46;29.31;99697.28;4973330;28;1914;-57
2023/09/30 13:02:23;;;;;;;;;;;;;;;29.14;28.86;99698.72;4973332;28;872;-58
2023/09/30 13:04:54;;;;;;;;;;;;;;;29.87;28.35;99695.75;4973451;28;828;-58
2023/09/30 13:07:21;;;;;;;;;;;;;;;30.66;27.40;99696.56;4973339;28;840;-58
2023/09/30 13:09:47;;;;;;;;;;;;;;;30.17;26.91;99691.94;4973673;28;1239;-58
2023/09/30 13:12:14;;;;;;;;;;;;;;;29.25;28.01;99687.22;4973356;28;1224;-59
2023/09/30 13:14:42;;;;;;;;;;;;;;;29.17;28.23;99689.91;4973089;28;1464;-60
2023/09/30 13:17:08;;;;;;;;;;;;;;;29.39;27.99;99700.25;4973562;28;1359;-58
2023/09/30 13:19:36;;;;;;;;;;;;;;;29.20;27.66;99700.19;4973760;28;1972;-58
2023/09/30 13:22:02;;;;;;;;;;;;;;;29.06;28.24;99693.63;4973263;28;825;-58
2023/09/30 13:24:29;;;;;;;;;;;;;;;28.39;28.49;99688.56;4973798;28;978;-59
2023/09/30 13:26:56;;;;;;;;;;;;;;;28.79;27.79;99689.00;4973118;28;823;-60
2023/09/30 13:29:23;;;;;;;;;;;;;;;28.92;27.83;99669.22;4973087;28;1275;-59
2023/09/30 13:31:49;;;;;;;;;;;;;;;28.89;28.24;99675.94;4971751;28;1315;-58
2023/09/30 13:34:19;;;;;;;;;;;;;;;28.98;27.91;99686.97;4972981;28;818;-59
2023/09/30 13:36:46;;;;;;;;;;;;;;;28.89;28.18;99668.22;4973017;28;833;-58